Time;durP1;ratioP1;P1;durP2;ratioP2;P2;SDS_P1;SDS_P2;PMS_P1;PMS_P2;Temp;Humidity;BMP_temperature;BMP_pressure;BME280_temperature;BME280_humidity;BME280_pressure;Samples;Min_cycle;Max_cycle;Signal;HPM_P1;HPM_P2
2024/03/19 00:00:44;;;;;;;;;;;;;;;10.37;60.71;94157.06;4186004;28;20218;-70
2024/03/19 00:02:46;;;;;;;;;;;;;;;10.23;60.78;94158.53;4184961;28;19921;-69
2024/03/19 00:04:47;;;;;;;;;;;;;;;10.23;60.88;94158.53;4195836;28;19969;-71
2024/03/19 00:06:47;;;;;;;;;;;;;;;10.34;61.27;94155.56;4174527;28;19924;-70
2024/03/19 00:08:48;;;;;;;;;;;;;;;10.51;60.86;94158.13;4172288;28;19928;-71
2024/03/19 00:10:49;;;;;;;;;;;;;;;10.63;60.83;94154.94;4182754;28;19920;-71
2024/03/19 00:12:49;;;;;;;;;;;;;;;10.80;60.85;94149.63;4182828;28;19925;-71
2024/03/19 00:14:50;;;;;;;;;;;;;;;10.86;60.80;94148.91;4182182;28;19921;-71
2024/03/19 00:16:51;;;;;;;;;;;;;;;10.97;60.68;94150.28;4188907;28;19931;-69
2024/03/19 00:18:52;;;;;;;;;;;;;;;11.10;60.33;94150.56;4188245;28;20364;-70
2024/03/19 00:20:53;;;;;;;;;;;;;;;11.18;60.13;94154.91;4182570;28;19928;-69
2024/03/19 00:22:54;;;;;;;;;;;;;;;11.20;59.73;94143.25;4191058;28;19929;-71
2024/03/19 00:24:55;;;;;;;;;;;;;;;11.25;59.88;94140.13;4187805;28;20256;-69
2024/03/19 00:26:56;;;;;;;;;;;;;;;11.17;60.38;94137.56;4190640;28;19994;-70
2024/03/19 00:28:56;;;;;;;;;;;;;;;11.18;59.89;94137.34;4181183;28;19955;-71
2024/03/19 00:30:58;;;;;;;;;;;;;;;11.19;59.17;94133.75;4183176;28;20433;-70
2024/03/19 00:32:59;;;;;;;;;;;;;;;11.28;58.88;94134.50;4185914;28;19939;-70
2024/03/19 00:34:59;;;;;;;;;;;;;;;11.35;59.54;94142.47;4159557;28;19929;-67
2024/03/19 00:37:01;;;;;;;;;;;;;;;11.38;59.14;94136.84;4190338;28;19924;-69
2024/03/19 00:39:01;;;;;;;;;;;;;;;11.20;59.25;94131.94;4195458;28;20031;-72
2024/03/19 00:41:02;;;;;;;;;;;;;;;11.21;59.62;94128.34;4190671;28;19928;-68
2024/03/19 00:43:03;;;;;;;;;;;;;;;11.21;59.85;94130.97;4195244;28;19920;-69
2024/03/19 00:45:04;;;;;;;;;;;;;;;11.09;59.71;94127.94;4194472;28;20392;-69
2024/03/19 00:47:05;;;;;;;;;;;;;;;10.92;59.98;94129.84;4179386;28;19921;-70
2024/03/19 00:49:05;;;;;;;;;;;;;;;10.98;59.98;94128.34;4175077;28;20318;-70
2024/03/19 00:51:06;;;;;;;;;;;;;;;11.10;60.09;94126.13;4179221;28;20449;-70
2024/03/19 00:53:07;;;;;;;;;;;;;;;11.18;60.02;94126.88;4192916;28;19925;-69
2024/03/19 00:55:08;;;;;;;;;;;;;;;11.24;59.88;94130.59;4193146;28;19924;-71
2024/03/19 00:57:09;;;;;;;;;;;;;;;10.98;60.45;94131.78;4191404;28;19939;-72
2024/03/19 00:59:10;;;;;;;;;;;;;;;10.59;61.90;94126.66;4174630;28;19944;-70
2024/03/19 01:01:10;;;;;;;;;;;;;;;10.51;62.08;94129.31;4189641;28;19920;-74
2024/03/19 01:03:11;;;;;;;;;;;;;;;10.61;62.04;94130.72;4188391;28;19921;-71
2024/03/19 01:05:12;;;;;;;;;;;;;;;10.74;61.55;94127.53;4196253;28;19920;-70
2024/03/19 01:07:13;;;;;;;;;;;;;;;10.82;61.27;94124.06;4194309;28;19978;-68
2024/03/19 01:09:14;;;;;;;;;;;;;;;10.77;62.00;94126.38;4190948;28;19974;-71
2024/03/19 01:11:15;;;;;;;;;;;;;;;10.80;61.87;94123.41;4183921;28;19945;-70
2024/03/19 01:13:16;;;;;;;;;;;;;;;10.89;61.51;94119.75;4185229;28;19921;-69
2024/03/19 01:15:16;;;;;;;;;;;;;;;10.95;61.16;94126.06;4194599;28;19971;-71
2024/03/19 01:17:17;;;;;;;;;;;;;;;10.92;61.46;94122.00;4179371;28;19925;-69
2024/03/19 01:19:17;;;;;;;;;;;;;;;10.94;61.39;94120.03;4188938;28;19924;-71
2024/03/19 01:21:18;;;;;;;;;;;;;;;10.97;61.23;94113.59;4176114;28;20360;-69
2024/03/19 01:23:19;;;;;;;;;;;;;;;11.07;60.80;94114.19;4182683;28;19928;-70
2024/03/19 01:25:20;;;;;;;;;;;;;;;11.09;60.42;94109.59;4188249;28;20336;-70
2024/03/19 01:27:21;;;;;;;;;;;;;;;11.11;60.35;94104.97;4186821;28;19924;-70
2024/03/19 01:29:22;;;;;;;;;;;;;;;11.21;60.30;94107.38;4195135;28;19981;-71
2024/03/19 01:31:22;;;;;;;;;;;;;;;11.30;60.42;94100.25;4161071;28;20384;-70
2024/03/19 01:33:24;;;;;;;;;;;;;;;11.36;60.77;94095.09;4190869;28;20472;-71
2024/03/19 01:35:24;;;;;;;;;;;;;;;11.38;60.14;94100.97;4192241;28;19924;-69
2024/03/19 01:37:25;;;;;;;;;;;;;;;11.40;60.29;94099.00;4206374;28;20279;-69
2024/03/19 01:39:26;;;;;;;;;;;;;;;11.38;59.90;94093.13;4186878;28;20236;-71
2024/03/19 01:41:26;;;;;;;;;;;;;;;11.28;60.14;94098.59;4182761;28;19920;-69
2024/03/19 01:43:27;;;;;;;;;;;;;;;11.22;60.46;94091.44;4192877;28;20092;-69
2024/03/19 01:45:28;;;;;;;;;;;;;;;11.17;60.89;94099.03;4195376;28;19962;-72
2024/03/19 01:47:28;;;;;;;;;;;;;;;11.11;61.34;94097.13;4187258;28;19943;-70
2024/03/19 01:49:29;;;;;;;;;;;;;;;10.82;61.85;94093.44;4193200;28;19927;-70
2024/03/19 01:51:31;;;;;;;;;;;;;;;10.72;62.78;94089.41;4191077;28;20051;-69
2024/03/19 01:53:36;;;;;;;;;;;;;;;10.66;63.07;94085.66;4188422;28;20011;-70
2024/03/19 01:55:37;;;;;;;;;;;;;;;10.70;63.19;94086.97;4174884;28;19920;-70
2024/03/19 01:57:38;;;;;;;;;;;;;;;10.68;63.51;94090.75;4188623;28;20418;-71
2024/03/19 01:59:38;;;;;;;;;;;;;;;10.66;63.31;94086.47;4188460;28;19920;-70
2024/03/19 02:01:39;;;;;;;;;;;;;;;10.65;63.40;94082.25;4180682;28;20002;-70
2024/03/19 02:03:40;;;;;;;;;;;;;;;10.46;64.42;94085.31;4190066;28;19924;-70
2024/03/19 02:05:41;;;;;;;;;;;;;;;10.50;65.11;94084.00;4180969;28;20027;-72
2024/03/19 02:07:42;;;;;;;;;;;;;;;10.56;65.13;94080.69;4174105;28;19967;-70
2024/03/19 02:09:44;;;;;;;;;;;;;;;10.55;66.05;94075.59;4184158;28;20027;-70
2024/03/19 02:11:44;;;;;;;;;;;;;;;10.61;65.91;94078.34;4188638;28;19927;-69
2024/03/19 02:13:45;;;;;;;;;;;;;;;10.70;65.73;94081.72;4176864;28;19960;-69
2024/03/19 02:15:47;;;;;;;;;;;;;;;10.76;65.61;94080.22;4191335;28;19964;-70
2024/03/19 02:17:47;;;;;;;;;;;;;;;10.80;65.70;94076.25;4184584;28;19925;-70
2024/03/19 02:19:48;;;;;;;;;;;;;;;10.88;65.40;94078.78;4188892;28;19988;-70
2024/03/19 02:21:48;;;;;;;;;;;;;;;10.94;65.39;94075.47;4188146;28;19992;-70
2024/03/19 02:23:49;;;;;;;;;;;;;;;10.99;64.92;94074.94;4191136;28;20343;-68
2024/03/19 02:25:51;;;;;;;;;;;;;;;10.99;65.14;94081.00;4191115;28;20330;-68
2024/03/19 02:27:51;;;;;;;;;;;;;;;11.01;65.04;94076.41;4185948;28;20590;-70
2024/03/19 02:29:52;;;;;;;;;;;;;;;11.00;64.98;94077.38;4192182;28;19921;-71
2024/03/19 02:31:53;;;;;;;;;;;;;;;10.99;65.18;94072.31;4190576;28;20052;-71
2024/03/19 02:33:55;;;;;;;;;;;;;;;10.90;65.34;94071.56;4190895;28;20014;-72
2024/03/19 02:35:55;;;;;;;;;;;;;;;10.85;65.52;94081.78;4176899;28;19940;-69
2024/03/19 02:37:56;;;;;;;;;;;;;;;10.80;65.83;94077.06;4178683;28;19920;-71
2024/03/19 02:39:57;;;;;;;;;;;;;;;10.82;65.73;94079.50;4191991;28;19925;-71
2024/03/19 02:41:58;;;;;;;;;;;;;;;10.82;65.63;94076.91;4187087;28;19924;-72
2024/03/19 02:43:59;;;;;;;;;;;;;;;10.84;65.87;94080.97;4192039;28;19920;-70
2024/03/19 02:46:00;;;;;;;;;;;;;;;10.82;65.91;94080.31;4186202;28;19951;-70
2024/03/19 02:48:00;;;;;;;;;;;;;;;10.77;65.61;94081.81;4179745;28;20357;-70
2024/03/19 02:50:01;;;;;;;;;;;;;;;10.68;65.53;94085.50;4189684;28;19924;-70
2024/03/19 02:52:02;;;;;;;;;;;;;;;10.45;66.34;94089.75;4167101;28;19921;-68
2024/03/19 02:54:02;;;;;;;;;;;;;;;10.08;67.19;94092.19;4190529;28;20387;-70
2024/03/19 02:56:03;;;;;;;;;;;;;;;9.83;68.47;94094.94;4191164;28;19973;-71
2024/03/19 02:58:04;;;;;;;;;;;;;;;9.83;68.78;94089.69;4183587;28;20015;-71
2024/03/19 03:00:08;;;;;;;;;;;;;;;9.94;68.75;94085.91;4197080;28;20439;-71
2024/03/19 03:02:08;;;;;;;;;;;;;;;10.03;68.31;94085.66;4180140;28;19924;-72
2024/03/19 03:04:09;;;;;;;;;;;;;;;10.12;68.11;94086.44;4196321;28;19958;-69
2024/03/19 03:06:10;;;;;;;;;;;;;;;10.21;67.81;94087.22;4187943;28;19929;-69
2024/03/19 03:08:11;;;;;;;;;;;;;;;10.28;67.35;94082.91;4174334;28;20078;-72
2024/03/19 03:10:11;;;;;;;;;;;;;;;10.35;67.24;94083.09;4183337;28;19927;-71
2024/03/19 03:12:12;;;;;;;;;;;;;;;10.44;66.89;94084.69;4192337;28;19951;-70
2024/03/19 03:14:13;;;;;;;;;;;;;;;10.51;66.71;94088.22;4173382;28;20012;-70
2024/03/19 03:16:13;;;;;;;;;;;;;;;10.57;66.27;94081.50;4185907;28;20370;-70
2024/03/19 03:18:15;;;;;;;;;;;;;;;10.62;65.78;94079.97;4187540;28;19924;-69
2024/03/19 03:20:16;;;;;;;;;;;;;;;10.69;65.76;94085.34;4183271;28;19947;-69
2024/03/19 03:22:16;;;;;;;;;;;;;;;10.72;65.01;94084.16;4188685;28;19920;-69
2024/03/19 03:24:17;;;;;;;;;;;;;;;10.75;64.83;94083.81;4190784;28;20007;-70
2024/03/19 03:26:18;;;;;;;;;;;;;;;10.74;64.69;94082.19;4190883;28;19951;-69
2024/03/19 03:28:19;;;;;;;;;;;;;;;10.76;64.59;94085.44;4196924;28;20401;-71
2024/03/19 03:30:20;;;;;;;;;;;;;;;10.79;64.89;94079.84;4190789;28;19932;-71
2024/03/19 03:32:21;;;;;;;;;;;;;;;10.48;65.23;94080.72;4190052;28;19967;-71
2024/03/19 03:34:24;;;;;;;;;;;;;;;10.37;65.69;94081.94;4191649;28;19920;-71
2024/03/19 03:36:24;;;;;;;;;;;;;;;10.08;66.96;94077.31;4186650;28;19921;-70
2024/03/19 03:38:25;;;;;;;;;;;;;;;9.76;67.71;94076.44;4190878;28;19993;-70
2024/03/19 03:40:27;;;;;;;;;;;;;;;9.53;68.76;94089.47;4198238;28;19928;-70
2024/03/19 03:42:27;;;;;;;;;;;;;;;9.48;69.37;94086.50;4189566;28;19962;-69
2024/03/19 03:44:28;;;;;;;;;;;;;;;9.42;69.60;94082.78;4195924;28;20313;-70
2024/03/19 03:46:29;;;;;;;;;;;;;;;9.28;69.88;94085.25;4190033;28;19920;-70
2024/03/19 03:48:29;;;;;;;;;;;;;;;9.33;69.93;94086.38;4175045;28;20351;-70
2024/03/19 03:50:30;;;;;;;;;;;;;;;9.47;70.09;94084.88;4188107;28;19931;-70
2024/03/19 03:52:32;;;;;;;;;;;;;;;9.62;69.45;94087.63;4197172;28;19920;-69
2024/03/19 03:54:33;;;;;;;;;;;;;;;9.54;69.58;94085.84;4164111;28;19925;-70
2024/03/19 03:56:34;;;;;;;;;;;;;;;9.59;69.42;94088.78;4182627;28;20378;-72
2024/03/19 03:58:35;;;;;;;;;;;;;;;9.38;70.31;94097.16;4191528;28;19920;-70
2024/03/19 04:00:36;;;;;;;;;;;;;;;9.18;71.18;94094.09;4174627;28;20430;-71
2024/03/19 04:02:41;;;;;;;;;;;;;;;9.10;71.51;94103.72;4184530;28;19920;-70
2024/03/19 04:04:41;;;;;;;;;;;;;;;8.90;72.23;94095.41;4193693;28;19993;-71
2024/03/19 04:06:42;;;;;;;;;;;;;;;8.77;72.24;94101.13;4195348;28;19934;-70
2024/03/19 04:08:42;;;;;;;;;;;;;;;8.58;73.24;94110.91;4185725;28;19920;-70
2024/03/19 04:10:43;;;;;;;;;;;;;;;8.59;73.92;94109.09;4186118;28;19955;-68
2024/03/19 04:12:44;;;;;;;;;;;;;;;8.52;74.27;94108.94;4194897;28;19920;-69
2024/03/19 04:14:45;;;;;;;;;;;;;;;8.58;74.23;94104.84;4184044;28;20063;-69
2024/03/19 04:16:45;;;;;;;;;;;;;;;8.59;74.03;94112.53;4187585;28;19921;-71
2024/03/19 04:18:46;;;;;;;;;;;;;;;8.77;73.68;94109.75;4191424;28;19921;-70
2024/03/19 04:20:47;;;;;;;;;;;;;;;8.91;74.18;94112.72;4190543;28;19920;-68
2024/03/19 04:22:48;;;;;;;;;;;;;;;8.86;73.69;94109.78;4187757;28;20007;-71
2024/03/19 04:24:48;;;;;;;;;;;;;;;8.63;73.96;94114.84;4190443;28;19930;-70
2024/03/19 04:26:49;;;;;;;;;;;;;;;8.27;76.15;94115.03;4207325;28;20417;-70
2024/03/19 04:28:50;;;;;;;;;;;;;;;8.31;76.27;94118.97;4193584;28;19920;-70
2024/03/19 04:30:50;;;;;;;;;;;;;;;8.51;76.81;94114.31;4192038;28;19921;-72
2024/03/19 04:32:51;;;;;;;;;;;;;;;8.75;75.80;94116.13;4194691;28;19943;-70
2024/03/19 04:34:52;;;;;;;;;;;;;;;8.97;75.72;94118.13;4192848;28;20016;-71
2024/03/19 04:36:52;;;;;;;;;;;;;;;9.17;74.43;94115.97;4178801;28;20446;-69
2024/03/19 04:38:53;;;;;;;;;;;;;;;9.34;73.60;94119.38;4182853;28;19932;-70
2024/03/19 04:40:54;;;;;;;;;;;;;;;9.51;73.16;94111.53;4193127;28;19939;-71
2024/03/19 04:42:54;;;;;;;;;;;;;;;9.63;71.77;94112.78;4198403;28;19920;-71
2024/03/19 04:44:55;;;;;;;;;;;;;;;9.73;71.20;94112.63;4190391;28;19954;-70
2024/03/19 04:46:56;;;;;;;;;;;;;;;9.81;70.64;94113.41;4185109;28;20016;-70
2024/03/19 04:48:57;;;;;;;;;;;;;;;9.87;70.56;94111.09;4188575;28;20248;-70
2024/03/19 04:50:58;;;;;;;;;;;;;;;9.90;69.79;94113.38;4177164;28;20248;-69
2024/03/19 04:53:01;;;;;;;;;;;;;;;9.96;69.60;94115.28;4192357;28;19928;-70
2024/03/19 04:55:02;;;;;;;;;;;;;;;10.03;69.79;94111.03;4187861;28;19932;-70
2024/03/19 04:57:03;;;;;;;;;;;;;;;9.91;70.03;94113.19;4200574;28;19927;-73
2024/03/19 04:59:03;;;;;;;;;;;;;;;9.91;70.41;94110.56;4186479;28;19920;-70
2024/03/19 05:01:04;;;;;;;;;;;;;;;9.91;69.74;94117.63;4186133;28;20346;-73
2024/03/19 05:03:05;;;;;;;;;;;;;;;9.69;70.05;94117.34;4185510;28;20322;-71
2024/03/19 05:05:05;;;;;;;;;;;;;;;9.49;70.59;94121.34;4186085;28;19928;-71
2024/03/19 05:07:07;;;;;;;;;;;;;;;9.44;71.91;94129.66;4195048;28;19978;-72
2024/03/19 05:09:09;;;;;;;;;;;;;;;9.05;72.37;94135.56;4162904;28;20391;-72
2024/03/19 05:11:09;;;;;;;;;;;;;;;8.63;73.78;94128.69;4192338;28;20020;-70
2024/03/19 05:13:10;;;;;;;;;;;;;;;8.58;74.00;94131.78;4191264;28;19950;-71
2024/03/19 05:15:11;;;;;;;;;;;;;;;8.57;74.42;94137.97;4190175;28;20008;-72
2024/03/19 05:17:13;;;;;;;;;;;;;;;8.57;75.29;94147.63;4171893;28;20379;-70
2024/03/19 05:19:13;;;;;;;;;;;;;;;8.66;74.46;94143.22;4189693;28;19970;-71
2024/03/19 05:21:14;;;;;;;;;;;;;;;8.71;74.39;94149.59;4195789;28;19920;-70
2024/03/19 05:23:15;;;;;;;;;;;;;;;8.71;74.81;94148.75;4196915;28;19974;-73
2024/03/19 05:25:16;;;;;;;;;;;;;;;8.62;74.98;94153.16;4194998;28;19992;-71
2024/03/19 05:27:17;;;;;;;;;;;;;;;8.51;75.17;94146.44;4196950;28;19925;-71
2024/03/19 05:29:18;;;;;;;;;;;;;;;8.49;75.27;94152.81;4191820;28;19920;-72
2024/03/19 05:31:22;;;;;;;;;;;;;;;8.45;75.53;94160.13;4199377;28;20276;-72
2024/03/19 05:33:22;;;;;;;;;;;;;;;8.23;77.46;94163.31;4194561;28;20069;-71
2024/03/19 05:35:25;;;;;;;;;;;;;;;8.33;76.87;94158.78;4180873;28;19920;-71
2024/03/19 05:37:27;;;;;;;;;;;;;;;8.35;77.68;94172.50;4167333;28;19970;-72
2024/03/19 05:39:27;;;;;;;;;;;;;;;8.12;77.00;94162.59;4191529;28;19928;-70
2024/03/19 05:41:28;;;;;;;;;;;;;;;8.31;77.21;94173.78;4181010;28;20000;-70
2024/03/19 05:43:30;;;;;;;;;;;;;;;8.33;77.01;94170.03;4196687;28;20284;-71
2024/03/19 05:45:31;;;;;;;;;;;;;;;8.51;76.84;94169.94;4196041;28;19919;-71
2024/03/19 05:47:34;;;;;;;;;;;;;;;8.37;76.89;94178.38;4200493;28;19921;-72
2024/03/19 05:49:35;;;;;;;;;;;;;;;8.49;76.84;94173.69;4189873;28;19966;-73
2024/03/19 05:51:35;;;;;;;;;;;;;;;8.50;76.66;94175.34;4189629;28;19943;-72
2024/03/19 05:53:38;;;;;;;;;;;;;;;8.60;77.01;94181.22;4188255;28;19920;-70
2024/03/19 05:55:38;;;;;;;;;;;;;;;8.59;76.56;94177.78;4194047;28;20370;-72
2024/03/19 05:57:39;;;;;;;;;;;;;;;8.76;77.30;94175.22;4188018;28;19921;-73
2024/03/19 05:59:40;;;;;;;;;;;;;;;8.87;76.18;94177.53;4182019;28;19952;-74
2024/03/19 06:01:40;;;;;;;;;;;;;;;8.94;76.37;94181.13;4186690;28;20007;-71
2024/03/19 06:03:41;;;;;;;;;;;;;;;8.96;75.97;94180.97;4183165;28;19920;-72
2024/03/19 06:05:42;;;;;;;;;;;;;;;8.88;76.30;94173.13;4183937;28;19927;-71
2024/03/19 06:07:42;;;;;;;;;;;;;;;8.89;76.11;94178.19;4191477;28;20067;-71
2024/03/19 06:09:47;;;;;;;;;;;;;;;8.91;76.38;94180.66;4189134;28;19924;-72
2024/03/19 06:11:47;;;;;;;;;;;;;;;8.94;76.40;94182.91;4165891;28;19921;-72
2024/03/19 06:13:49;;;;;;;;;;;;;;;9.01;76.26;94184.75;4184144;28;20272;-71
2024/03/19 06:15:50;;;;;;;;;;;;;;;9.06;76.33;94183.44;4185462;28;20014;-72
2024/03/19 06:17:51;;;;;;;;;;;;;;;9.08;75.54;94186.69;4180063;28;19924;-72
2024/03/19 06:19:52;;;;;;;;;;;;;;;9.12;75.82;94190.59;4189045;28;19996;-72
2024/03/19 06:21:53;;;;;;;;;;;;;;;9.13;75.61;94187.84;4198344;28;20054;-71
2024/03/19 06:23:54;;;;;;;;;;;;;;;9.16;75.51;94197.13;4193465;28;20286;-71
2024/03/19 06:25:55;;;;;;;;;;;;;;;9.17;75.36;94193.56;4191172;28;20383;-71
2024/03/19 06:27:55;;;;;;;;;;;;;;;9.01;75.29;94189.97;4209364;28;19976;-71
2024/03/19 06:29:56;;;;;;;;;;;;;;;8.97;75.91;94191.25;4167446;28;20513;-71
2024/03/19 06:31:57;;;;;;;;;;;;;;;8.90;75.04;94199.91;4190557;28;19936;-72
2024/03/19 06:33:57;;;;;;;;;;;;;;;8.83;76.48;94197.09;4198604;28;19924;-71
2024/03/19 06:35:58;;;;;;;;;;;;;;;8.85;76.59;94200.38;4196571;28;19943;-72
2024/03/19 06:37:58;;;;;;;;;;;;;;;8.79;76.24;94206.25;4190530;28;19997;-71
2024/03/19 06:39:59;;;;;;;;;;;;;;;8.76;76.66;94203.97;4191926;28;20356;-70
2024/03/19 06:42:02;;;;;;;;;;;;;;;8.82;76.21;94206.75;4186891;28;19983;-69
2024/03/19 06:44:02;;;;;;;;;;;;;;;8.90;75.92;94216.38;4197962;28;20007;-70
2024/03/19 06:46:03;;;;;;;;;;;;;;;8.93;76.00;94210.84;4192725;28;20004;-70
2024/03/19 06:48:04;;;;;;;;;;;;;;;8.96;76.00;94217.53;4187353;28;19976;-72
2024/03/19 06:50:06;;;;;;;;;;;;;;;8.95;75.93;94221.94;4186731;28;20071;-72
2024/03/19 06:52:07;;;;;;;;;;;;;;;8.60;75.39;94229.06;4190498;28;20465;-72
2024/03/19 06:54:08;;;;;;;;;;;;;;;8.58;76.66;94236.22;4191594;28;19921;-70
2024/03/19 06:56:12;;;;;;;;;;;;;;;8.58;75.52;94233.63;4194619;28;20303;-71
2024/03/19 06:58:12;;;;;;;;;;;;;;;8.66;75.45;94232.00;4175239;28;20372;-72
2024/03/19 07:00:14;;;;;;;;;;;;;;;8.69;75.37;94237.72;4201094;28;20590;-72
2024/03/19 07:02:18;;;;;;;;;;;;;;;8.57;74.85;94231.16;4187890;28;19928;-68
2024/03/19 07:04:18;;;;;;;;;;;;;;;8.43;74.62;94229.94;4192018;28;19924;-70
2024/03/19 07:06:19;;;;;;;;;;;;;;;8.43;74.16;94243.00;4191386;28;20370;-71
2024/03/19 07:08:20;;;;;;;;;;;;;;;8.47;74.55;94236.50;4205377;28;20203;-72
2024/03/19 07:10:21;;;;;;;;;;;;;;;8.48;74.04;94245.97;4188827;28;19920;-72
2024/03/19 07:12:22;;;;;;;;;;;;;;;8.39;74.55;94242.47;4191024;28;19924;-71
2024/03/19 07:14:23;;;;;;;;;;;;;;;8.40;74.42;94253.75;4193054;28;20399;-71
2024/03/19 07:16:25;;;;;;;;;;;;;;;8.38;74.58;94250.47;4194303;28;19924;-70
2024/03/19 07:18:25;;;;;;;;;;;;;;;8.26;73.98;94254.31;4197871;28;19920;-71
2024/03/19 07:20:31;;;;;;;;;;;;;;;8.20;75.51;94259.19;4175398;28;19927;-73
2024/03/19 07:22:32;;;;;;;;;;;;;;;8.29;75.27;94262.66;4201964;28;19920;-71
2024/03/19 07:24:33;;;;;;;;;;;;;;;8.29;75.36;94261.84;4191879;28;20011;-70
2024/03/19 07:26:34;;;;;;;;;;;;;;;8.35;74.47;94269.06;4180550;28;19982;-73
2024/03/19 07:28:38;;;;;;;;;;;;;;;8.33;73.80;94265.78;4183094;28;19928;-73
2024/03/19 07:30:38;;;;;;;;;;;;;;;8.18;74.37;94270.75;4189136;28;19963;-72
2024/03/19 07:32:39;;;;;;;;;;;;;;;8.08;74.99;94281.28;4187095;28;20411;-72
2024/03/19 07:34:41;;;;;;;;;;;;;;;8.10;74.72;94278.53;4192023;28;20402;-70
2024/03/19 07:37:00;;;;;;;;;;;;;;;8.25;75.23;94279.59;4189686;28;19928;-72
2024/03/19 07:39:03;;;;;;;;;;;;;;;8.35;74.54;94271.66;4200145;28;19989;-72
2024/03/19 07:41:04;;;;;;;;;;;;;;;8.43;73.90;94276.13;4176041;28;19955;-69
2024/03/19 07:43:05;;;;;;;;;;;;;;;8.44;73.26;94283.00;4194462;28;19932;-71
2024/03/19 07:45:06;;;;;;;;;;;;;;;8.48;73.75;94279.91;4182285;28;19929;-71
2024/03/19 07:47:07;;;;;;;;;;;;;;;8.46;73.61;94287.06;4191359;28;20065;-72
2024/03/19 07:49:08;;;;;;;;;;;;;;;8.46;72.89;94288.88;4189813;28;19924;-71
2024/03/19 07:51:09;;;;;;;;;;;;;;;8.50;72.81;94291.03;4208031;28;20397;-70
2024/03/19 07:53:10;;;;;;;;;;;;;;;8.49;73.03;94294.59;4169376;28;19984;-70
2024/03/19 07:55:10;;;;;;;;;;;;;;;8.41;72.98;94307.63;4189804;28;19936;-72
2024/03/19 07:57:11;;;;;;;;;;;;;;;8.42;73.00;94298.00;4187822;28;19944;-69
2024/03/19 07:59:12;;;;;;;;;;;;;;;8.23;73.81;94299.00;4190493;28;19963;-71
2024/03/19 08:01:13;;;;;;;;;;;;;;;8.18;73.41;94308.09;4191325;28;19931;-69
2024/03/19 08:03:13;;;;;;;;;;;;;;;8.03;74.10;94306.22;4189786;28;20424;-72
2024/03/19 08:05:14;;;;;;;;;;;;;;;7.97;74.58;94315.47;4186358;28;19949;-71
2024/03/19 08:07:16;;;;;;;;;;;;;;;8.11;75.20;94314.91;4182962;28;20015;-72
2024/03/19 08:09:17;;;;;;;;;;;;;;;8.18;74.64;94318.53;4194381;28;19969;-73
2024/03/19 08:11:18;;;;;;;;;;;;;;;8.27;74.53;94315.97;4188409;28;19996;-71
2024/03/19 08:13:19;;;;;;;;;;;;;;;8.37;74.54;94312.28;4198111;28;19924;-70
2024/03/19 08:15:20;;;;;;;;;;;;;;;8.24;73.11;94314.50;4178380;28;20006;-71
2024/03/19 08:17:21;;;;;;;;;;;;;;;8.31;73.47;94317.31;4193064;28;20329;-71
2024/03/19 08:19:21;;;;;;;;;;;;;;;8.26;72.48;94328.22;4191106;28;19920;-70
2024/03/19 08:21:22;;;;;;;;;;;;;;;8.31;72.63;94318.13;4188289;28;20004;-70
2024/03/19 08:23:23;;;;;;;;;;;;;;;8.36;73.21;94320.28;4174733;28;20394;-71
2024/03/19 08:25:23;;;;;;;;;;;;;;;8.42;73.19;94318.88;4189186;28;19939;-72
2024/03/19 08:27:25;;;;;;;;;;;;;;;8.40;73.21;94332.03;4196342;28;19920;-72
2024/03/19 08:29:26;;;;;;;;;;;;;;;8.32;73.13;94327.56;4195035;28;19920;-71
2024/03/19 08:31:27;;;;;;;;;;;;;;;8.29;72.91;94319.25;4163822;28;19943;-72
2024/03/19 08:33:28;;;;;;;;;;;;;;;8.25;73.67;94328.38;4180964;28;19930;-71
2024/03/19 08:35:29;;;;;;;;;;;;;;;8.10;72.51;94328.91;4187929;28;20013;-72
2024/03/19 08:37:30;;;;;;;;;;;;;;;7.91;71.24;94327.31;4191255;28;19924;-71
2024/03/19 08:39:30;;;;;;;;;;;;;;;7.72;71.84;94328.34;4188582;28;19920;-71
2024/03/19 08:41:31;;;;;;;;;;;;;;;7.69;72.98;94331.22;4189144;28;19965;-70
2024/03/19 08:43:32;;;;;;;;;;;;;;;7.71;72.33;94329.28;4183747;28;19957;-72
2024/03/19 08:45:35;;;;;;;;;;;;;;;7.79;72.52;94326.75;4187193;28;19996;-71
2024/03/19 08:47:39;;;;;;;;;;;;;;;7.78;72.34;94348.56;4185304;28;19932;-71
2024/03/19 08:49:40;;;;;;;;;;;;;;;7.56;69.27;94342.03;4186928;28;20006;-71
2024/03/19 08:51:40;;;;;;;;;;;;;;;7.26;70.35;94337.19;4183016;28;20386;-69
2024/03/19 08:53:44;;;;;;;;;;;;;;;7.44;71.42;94345.00;4185521;28;19921;-69
2024/03/19 08:55:54;;;;;;;;;;;;;;;7.41;70.33;94347.91;4193056;28;19920;-71
2024/03/19 08:57:56;;;;;;;;;;;;;;;7.39;70.04;94350.66;4188705;28;19963;-69
2024/03/19 09:00:00;;;;;;;;;;;;;;;7.24;68.86;94352.94;4182385;28;20399;-68
2024/03/19 09:02:03;;;;;;;;;;;;;;;7.25;69.07;94351.16;4181902;28;20000;-71
2024/03/19 09:04:05;;;;;;;;;;;;;;;7.21;68.61;94349.84;4187607;28;19927;-70
2024/03/19 09:06:06;;;;;;;;;;;;;;;7.20;68.82;94351.59;4191566;28;19943;-72
2024/03/19 09:08:06;;;;;;;;;;;;;;;7.08;68.63;94348.41;4179410;28;20282;-69
2024/03/19 09:10:07;;;;;;;;;;;;;;;7.29;68.54;94353.34;4185393;28;19920;-71
2024/03/19 09:12:08;;;;;;;;;;;;;;;7.29;68.98;94361.16;4170510;28;19921;-71
2024/03/19 09:14:09;;;;;;;;;;;;;;;7.19;67.85;94352.59;4185825;28;20248;-71
2024/03/19 09:16:11;;;;;;;;;;;;;;;7.02;68.23;94355.97;4190221;28;20464;-70
2024/03/19 09:18:12;;;;;;;;;;;;;;;7.12;68.58;94357.56;4164752;28;19971;-70
2024/03/19 09:20:14;;;;;;;;;;;;;;;7.22;68.57;94354.06;4193643;28;19924;-73
2024/03/19 09:22:14;;;;;;;;;;;;;;;7.30;67.19;94351.56;4175821;28;19968;-70
2024/03/19 09:24:15;;;;;;;;;;;;;;;7.34;67.63;94353.72;4198533;28;19979;-70
2024/03/19 09:26:17;;;;;;;;;;;;;;;7.42;67.16;94357.34;4191704;28;20259;-71
2024/03/19 09:28:18;;;;;;;;;;;;;;;7.34;66.91;94351.09;4188822;28;19932;-71
2024/03/19 09:30:19;;;;;;;;;;;;;;;7.43;66.22;94349.41;4197751;28;19954;-73
2024/03/19 09:32:21;;;;;;;;;;;;;;;7.49;66.95;94355.81;4203093;28;20141;-73
2024/03/19 09:34:21;;;;;;;;;;;;;;;7.50;66.00;94360.06;4182419;28;20030;-73
2024/03/19 09:36:22;;;;;;;;;;;;;;;7.50;65.93;94360.88;4189340;28;19928;-72
2024/03/19 09:38:23;;;;;;;;;;;;;;;7.52;66.73;94355.50;4172892;28;19921;-71
2024/03/19 09:40:24;;;;;;;;;;;;;;;7.56;67.16;94362.88;4209931;28;20461;-69
2024/03/19 09:42:25;;;;;;;;;;;;;;;7.71;66.32;94357.16;4199985;28;19936;-69
2024/03/19 09:44:26;;;;;;;;;;;;;;;7.83;67.20;94360.34;4186341;28;19921;-72
2024/03/19 09:46:27;;;;;;;;;;;;;;;7.97;66.94;94357.19;4189337;28;20056;-73
2024/03/19 09:48:28;;;;;;;;;;;;;;;8.08;67.04;94362.16;4177088;28;20041;-71
2024/03/19 09:50:28;;;;;;;;;;;;;;;8.11;66.74;94358.44;4192166;28;19928;-70
2024/03/19 09:52:29;;;;;;;;;;;;;;;8.10;67.12;94362.03;4188200;28;20004;-71
2024/03/19 09:54:30;;;;;;;;;;;;;;;8.13;66.10;94354.72;4192738;28;19920;-71
2024/03/19 09:56:31;;;;;;;;;;;;;;;8.17;66.71;94357.81;4173543;28;20040;-71
2024/03/19 09:58:31;;;;;;;;;;;;;;;8.25;66.54;94372.72;4171459;28;20008;-71
2024/03/19 10:00:32;;;;;;;;;;;;;;;8.17;65.95;94366.50;4176237;28;20379;-71
2024/03/19 10:02:33;;;;;;;;;;;;;;;8.20;64.98;94370.59;4165614;28;19952;-73
2024/03/19 10:04:33;;;;;;;;;;;;;;;8.23;65.48;94359.81;4178454;28;19932;-72
2024/03/19 10:06:34;;;;;;;;;;;;;;;8.21;66.52;94361.75;4184771;28;20147;-72
2024/03/19 10:08:34;;;;;;;;;;;;;;;8.26;66.10;94363.91;4185348;28;20058;-70
2024/03/19 10:10:35;;;;;;;;;;;;;;;8.31;65.73;94364.28;4170116;28;19921;-72
2024/03/19 10:12:36;;;;;;;;;;;;;;;8.28;65.04;94362.81;4189245;28;19920;-73
2024/03/19 10:14:37;;;;;;;;;;;;;;;8.17;63.29;94353.44;4190833;28;20091;-72
2024/03/19 10:16:43;;;;;;;;;;;;;;;8.25;63.62;94365.72;4193740;28;19967;-70
2024/03/19 10:18:44;;;;;;;;;;;;;;;8.14;63.03;94364.16;4191813;28;19921;-70
2024/03/19 10:20:45;;;;;;;;;;;;;;;8.17;64.25;94360.44;4187959;28;19920;-70
2024/03/19 10:22:46;;;;;;;;;;;;;;;8.31;65.18;94359.88;4189732;28;19954;-71
2024/03/19 10:24:47;;;;;;;;;;;;;;;8.30;64.71;94350.44;4188932;28;19924;-72
2024/03/19 10:26:49;;;;;;;;;;;;;;;8.34;63.99;94363.97;4161847;28;19925;-71
2024/03/19 10:28:52;;;;;;;;;;;;;;;8.27;64.43;94352.53;4190646;28;20344;-71
2024/03/19 10:30:53;;;;;;;;;;;;;;;8.26;64.38;94350.88;4176814;28;19920;-72
2024/03/19 10:32:53;;;;;;;;;;;;;;;8.33;64.87;94357.13;4176710;28;19967;-73
2024/03/19 10:34:54;;;;;;;;;;;;;;;8.33;64.36;94350.09;4189144;28;20330;-72